createdAt,value
2023-02-06T00:02:38.874Z,-2.52
2023-02-06T00:07:46.251Z,-2.46
2023-02-06T00:12:53.769Z,-2.40
2023-02-06T00:18:01.319Z,-2.35
2023-02-06T00:23:09.045Z,-2.28
2023-02-06T00:28:16.806Z,-2.21
2023-02-06T00:33:24.686Z,-2.14
2023-02-06T00:38:32.665Z,-2.06
2023-02-06T00:43:39.971Z,-1.99
2023-02-06T00:48:47.248Z,-1.92
2023-02-06T00:53:54.661Z,-1.86
2023-02-06T00:59:02.063Z,-1.81
2023-02-06T01:04:09.769Z,-1.75
2023-02-06T01:09:18.730Z,-1.67
2023-02-06T01:14:26.124Z,-1.61
2023-02-06T01:19:33.527Z,-1.53
2023-02-06T01:24:41.570Z,-1.46
2023-02-06T01:29:51.081Z,-1.39
2023-02-06T01:34:58.650Z,-1.32
2023-02-06T01:40:06.695Z,-1.26
2023-02-06T01:45:39.970Z,-1.21
2023-02-06T01:50:52.156Z,-1.15
2023-02-06T01:56:01.350Z,-1.09
2023-02-06T02:01:10.604Z,-1.04
2023-02-06T02:06:24.381Z,-1.00
2023-02-06T02:11:35.863Z,-0.96
2023-02-06T02:16:51.087Z,-0.93
2023-02-06T02:22:24.323Z,-0.90
2023-02-06T02:27:50.568Z,-0.85
2023-02-06T02:33:29.517Z,-0.80
2023-02-06T02:38:45.809Z,-0.75
2023-02-06T02:43:58.894Z,-0.69
2023-02-06T02:49:11.239Z,-0.64
2023-02-06T02:54:19.320Z,-0.59
2023-02-06T02:59:36.362Z,-0.54
2023-02-06T03:04:53.038Z,-0.48
2023-02-06T03:10:10.714Z,-0.42
2023-02-06T03:15:28.010Z,-0.37
2023-02-06T03:20:38.840Z,-0.32
2023-02-06T03:25:49.610Z,-0.27
2023-02-06T03:31:01.318Z,-0.22
2023-02-06T03:36:11.538Z,-0.17
2023-02-06T03:41:22.046Z,-0.14
2023-02-06T03:46:30.732Z,-0.10
2023-02-06T03:51:42.736Z,-0.08
2023-02-06T03:56:54.623Z,-0.05
2023-02-06T04:02:04.589Z,-0.06
2023-02-06T04:07:17.875Z,-0.01
2023-02-06T04:12:26.394Z,0.04
2023-02-06T04:17:49.658Z,0.09
2023-02-06T04:22:57.490Z,0.11
2023-02-06T04:28:05.388Z,0.14
2023-02-06T04:33:12.733Z,0.15
2023-02-06T04:38:20.003Z,0.17
2023-02-06T04:43:27.544Z,0.19
2023-02-06T04:48:35.010Z,0.19
2023-02-06T04:53:42.336Z,0.21
2023-02-06T04:58:49.678Z,0.21
2023-02-06T05:03:57.052Z,0.22
2023-02-06T05:09:04.963Z,0.22
2023-02-06T05:14:12.443Z,0.21
2023-02-06T05:19:20.287Z,0.20
2023-02-06T05:24:27.889Z,0.17
2023-02-06T05:29:35.279Z,0.14
2023-02-06T05:34:42.770Z,0.11
2023-02-06T05:39:50.239Z,0.10
2023-02-06T05:44:58.016Z,0.09
2023-02-06T05:50:05.439Z,0.07
2023-02-06T05:55:14.740Z,0.06
2023-02-06T06:00:23.088Z,0.03
2023-02-06T06:05:30.562Z,0.02
2023-02-06T06:10:37.973Z,0.00
2023-02-06T06:15:46.268Z,-0.01
2023-02-06T06:20:53.824Z,-0.01
2023-02-06T06:26:01.213Z,-0.02
2023-02-06T06:31:12.270Z,-0.02
2023-02-06T06:36:19.806Z,-0.02
2023-02-06T06:41:27.405Z,-0.02
2023-02-06T06:46:35.044Z,-0.02
2023-02-06T06:51:42.528Z,-0.03
2023-02-06T06:56:50.068Z,-0.04
2023-02-06T07:01:57.402Z,-0.04
2023-02-06T07:07:04.831Z,-0.05
2023-02-06T07:12:12.712Z,-0.07
2023-02-06T07:17:20.304Z,-0.08
2023-02-06T07:22:28.094Z,-0.08
2023-02-06T07:27:36.007Z,-0.08
2023-02-06T07:32:43.667Z,-0.08
2023-02-06T07:37:51.205Z,-0.08
2023-02-06T07:42:58.686Z,-0.08
2023-02-06T07:48:09.925Z,-0.06
2023-02-06T07:53:17.287Z,-0.04
2023-02-06T07:58:24.816Z,-0.00
2023-02-06T08:03:32.524Z,0.05
2023-02-06T08:08:39.700Z,0.09
2023-02-06T08:13:47.861Z,0.15
2023-02-06T08:18:55.403Z,0.20
2023-02-06T08:24:04.093Z,0.26
2023-02-06T08:29:12.378Z,0.32
2023-02-06T08:34:19.974Z,0.38
2023-02-06T08:39:27.605Z,0.45
2023-02-06T08:44:35.050Z,0.50
2023-02-06T08:49:43.201Z,0.56
2023-02-06T08:54:51.440Z,0.62
2023-02-06T08:59:59.334Z,0.69
2023-02-06T09:05:07.138Z,0.76
2023-02-06T09:10:26.813Z,0.82
2023-02-06T09:15:35.876Z,0.88
2023-02-06T09:20:43.573Z,0.93
2023-02-06T09:25:51.247Z,1.00
2023-02-06T09:30:58.745Z,1.05
2023-02-06T09:36:11.533Z,1.13
2023-02-06T09:41:31.473Z,1.21
2023-02-06T09:46:46.886Z,1.28
2023-02-06T09:52:24.303Z,1.34
2023-02-06T09:57:43.302Z,1.40
2023-02-06T10:03:06.526Z,1.45
2023-02-06T10:08:24.412Z,1.53
2023-02-06T10:13:35.547Z,1.62
2023-02-06T10:18:47.493Z,1.71
2023-02-06T10:24:00.726Z,1.78
2023-02-06T10:29:16.567Z,1.85
2023-02-06T10:34:43.930Z,1.91
2023-02-06T10:40:15.142Z,1.99
2023-02-06T10:45:34.930Z,2.07
2023-02-06T10:50:49.709Z,2.14
2023-02-06T10:56:01.378Z,2.24
2023-02-06T11:01:24.984Z,2.48
2023-02-06T11:06:34.552Z,2.49
2023-02-06T11:11:43.784Z,2.10
2023-02-06T11:16:51.340Z,1.88
2023-02-06T11:22:10.874Z,1.73
2023-02-06T11:27:21.734Z,1.63
2023-02-06T11:32:38.617Z,1.58
2023-02-06T11:37:46.141Z,1.54
2023-02-06T11:42:55.543Z,1.52
2023-02-06T11:48:03.488Z,1.52
2023-02-06T11:53:18.518Z,1.53
2023-02-06T11:58:27.590Z,1.55
2023-02-06T12:03:38.684Z,1.58
2023-02-06T12:08:52.507Z,1.61
2023-02-06T12:14:05.527Z,1.65
2023-02-06T12:19:19.184Z,1.93
2023-02-06T12:24:31.547Z,2.21
2023-02-06T12:29:43.861Z,2.34
2023-02-06T12:34:57.795Z,2.48
2023-02-06T12:40:05.890Z,2.62
2023-02-06T12:45:24.915Z,2.68
2023-02-06T12:50:35.413Z,2.58
2023-02-06T12:55:49.845Z,2.54
2023-02-06T13:01:31.653Z,2.54
2023-02-06T13:06:50.160Z,2.57
2023-02-06T13:12:08.536Z,2.60
2023-02-06T13:17:21.596Z,2.65
2023-02-06T13:22:50.707Z,2.68
2023-02-06T13:27:59.921Z,2.73
2023-02-06T13:33:17.098Z,2.75
2023-02-06T13:38:38.608Z,2.79
2023-02-06T13:43:49.981Z,2.82
2023-02-06T13:49:26.229Z,2.85
2023-02-06T13:54:57.591Z,2.87
2023-02-06T14:00:12.273Z,3.17
2023-02-06T14:05:25.317Z,3.71
2023-02-06T14:11:29.857Z,4.08
2023-02-06T14:16:50.624Z,4.22
2023-02-06T14:22:06.843Z,4.18
2023-02-06T14:27:30.793Z,3.88
2023-02-06T14:32:48.442Z,3.69
2023-02-06T14:38:22.358Z,3.55
2023-02-06T14:43:34.534Z,3.41
2023-02-06T14:48:50.240Z,3.31
2023-02-06T14:54:00.760Z,3.20
2023-02-06T14:59:21.571Z,3.11
2023-02-06T15:04:32.330Z,3.03
2023-02-06T15:09:44.538Z,2.96
2023-02-06T15:14:57.845Z,2.89
2023-02-06T15:20:25.370Z,2.93
2023-02-06T15:25:42.404Z,3.24
2023-02-06T15:30:55.034Z,3.46
2023-02-06T15:36:04.953Z,3.61
2023-02-06T15:41:14.899Z,3.72
2023-02-06T15:46:22.619Z,3.81
2023-02-06T15:51:32.142Z,3.87
2023-02-06T15:56:42.995Z,3.93
2023-02-06T16:01:51.861Z,3.97
2023-02-06T16:07:12.996Z,3.99
2023-02-06T16:12:21.957Z,4.01
2023-02-06T16:17:36.233Z,4.01
2023-02-06T16:22:44.354Z,4.00
2023-02-06T16:27:53.400Z,3.98
2023-02-06T16:33:11.497Z,3.96
2023-02-06T16:38:19.298Z,3.94
2023-02-06T16:43:28.563Z,3.91
2023-02-06T16:48:36.049Z,3.88
2023-02-06T16:53:45.288Z,3.85
2023-02-06T16:58:53.332Z,3.82
2023-02-06T17:04:01.112Z,3.79
2023-02-06T17:09:11.494Z,3.76
2023-02-06T17:14:19.355Z,3.73
2023-02-06T17:19:27.581Z,3.69
2023-02-06T17:24:35.363Z,3.66
2023-02-06T17:29:43.646Z,3.63
2023-02-06T17:34:54.881Z,3.60
2023-02-06T17:40:02.660Z,3.57
2023-02-06T17:45:11.676Z,3.55
2023-02-06T17:50:20.216Z,3.53
2023-02-06T17:55:28.850Z,3.50
2023-02-06T18:00:36.770Z,3.49
2023-02-06T18:05:44.781Z,3.47
2023-02-06T18:10:52.829Z,3.46
2023-02-06T18:16:00.983Z,3.45
2023-02-06T18:21:08.879Z,3.44
2023-02-06T18:26:16.748Z,3.42
2023-02-06T18:31:30.070Z,3.41
2023-02-06T18:36:38.450Z,3.40
2023-02-06T18:42:04.272Z,3.39
2023-02-06T18:47:13.165Z,3.38
2023-02-06T18:52:20.570Z,3.38
2023-02-06T18:57:28.058Z,3.37
2023-02-06T19:02:36.180Z,3.36
2023-02-06T19:07:43.784Z,3.36
2023-02-06T19:12:51.401Z,3.36
2023-02-06T19:17:59.791Z,3.35
2023-02-06T19:23:07.218Z,3.35
2023-02-06T19:28:14.598Z,3.35
2023-02-06T19:33:22.116Z,3.34
2023-02-06T19:38:29.814Z,3.34
2023-02-06T19:43:37.668Z,3.33
2023-02-06T19:48:46.450Z,3.33
2023-02-06T19:53:55.536Z,3.33
2023-02-06T19:59:04.753Z,3.34
2023-02-06T20:04:14.130Z,3.33
2023-02-06T20:09:22.706Z,3.33
2023-02-06T20:14:35.634Z,3.33
2023-02-06T20:19:43.604Z,3.32
2023-02-06T20:24:51.595Z,3.32
2023-02-06T20:30:00.249Z,3.30
2023-02-06T20:35:08.543Z,3.29
2023-02-06T20:40:17.323Z,3.27
2023-02-06T20:45:25.326Z,3.26
2023-02-06T20:50:32.670Z,3.24
2023-02-06T20:55:44.633Z,3.21
2023-02-06T21:00:52.254Z,3.19
2023-02-06T21:06:03.096Z,3.17
2023-02-06T21:11:11.271Z,3.15
2023-02-06T21:16:18.797Z,3.13
2023-02-06T21:21:27.216Z,3.12
2023-02-06T21:26:34.943Z,3.10
2023-02-06T21:31:42.757Z,3.08
2023-02-06T21:36:50.454Z,3.07
2023-02-06T21:42:00.830Z,3.06
2023-02-06T21:47:10.260Z,3.06
2023-02-06T21:52:17.710Z,3.05
2023-02-06T21:57:25.308Z,3.05
2023-02-06T22:02:32.976Z,3.04
2023-02-06T22:07:41.035Z,3.03
2023-02-06T22:12:51.722Z,3.02
2023-02-06T22:17:59.576Z,3.00
2023-02-06T22:23:08.651Z,2.98
2023-02-06T22:28:16.284Z,2.97
2023-02-06T22:33:25.012Z,2.97
2023-02-06T22:38:32.974Z,2.96
2023-02-06T22:43:41.127Z,2.96
2023-02-06T22:48:49.126Z,2.96
2023-02-06T22:53:56.730Z,2.96
2023-02-06T22:59:06.222Z,2.96
2023-02-06T23:04:16.671Z,2.97
2023-02-06T23:09:27.150Z,2.97
2023-02-06T23:14:35.212Z,2.96
2023-02-06T23:19:42.957Z,2.96
2023-02-06T23:24:53.548Z,2.96
2023-02-06T23:30:01.792Z,2.96
2023-02-06T23:35:10.353Z,2.96
2023-02-06T23:40:17.416Z,2.95
2023-02-06T23:45:24.983Z,2.96
2023-02-06T23:50:32.671Z,2.96
2023-02-06T23:55:42.254Z,2.97
